createdAt,value
2018-12-11T00:02:02.953Z,100156.83
2018-12-11T00:04:33.964Z,100165.16
2018-12-11T00:07:03.490Z,100169.80
2018-12-11T00:09:32.688Z,100171.91
2018-12-11T00:12:03.752Z,100174.35
2018-12-11T00:14:33.714Z,100178.66
2018-12-11T00:17:03.337Z,100184.55
2018-12-11T00:19:32.733Z,100183.09
2018-12-11T00:22:03.000Z,100183.09
2018-12-11T00:24:32.065Z,100187.09
2018-12-11T00:27:01.158Z,100192.58
2018-12-11T00:29:30.382Z,100203.37
2018-12-11T00:31:59.394Z,100200.84
2018-12-11T00:34:28.863Z,100198.51
2018-12-11T00:36:57.874Z,100181.05
2018-12-11T00:39:26.937Z,100218.61
2018-12-11T00:41:56.455Z,100219.27
2018-12-11T00:44:25.547Z,100229.77
2018-12-11T00:46:54.855Z,100231.75
2018-12-11T00:49:24.250Z,100235.41
2018-12-11T00:51:53.275Z,100231.00
2018-12-11T00:54:22.301Z,100243.55
2018-12-11T00:56:51.748Z,100239.09
2018-12-11T00:59:20.753Z,100241.30
2018-12-11T01:01:49.809Z,100246.84
2018-12-11T01:04:19.286Z,100255.06
2018-12-11T01:06:48.297Z,100255.34
2018-12-11T01:09:17.823Z,100259.32
2018-12-11T01:11:47.134Z,100260.93
2018-12-11T01:14:16.213Z,100276.38
2018-12-11T01:16:45.434Z,100278.28
2018-12-11T01:19:15.006Z,100278.96
2018-12-11T01:21:44.117Z,100282.66
2018-12-11T01:24:13.217Z,100292.21
2018-12-11T01:26:42.727Z,100294.16
2018-12-11T01:29:11.813Z,100297.45
2018-12-11T01:31:40.910Z,100300.89
2018-12-11T01:34:10.290Z,100301.18
2018-12-11T01:36:39.414Z,100306.95
2018-12-11T01:39:09.510Z,100309.07
2018-12-11T01:41:39.141Z,100319.87
2018-12-11T01:44:08.157Z,100326.56
2018-12-11T01:46:38.376Z,100330.08
2018-12-11T01:49:07.962Z,100331.73
2018-12-11T01:51:38.065Z,100329.36
2018-12-11T01:54:07.170Z,100335.20
2018-12-11T01:56:36.578Z,100345.14
2018-12-11T01:59:05.670Z,100351.36
2018-12-11T02:01:34.758Z,100353.82
2018-12-11T02:04:04.273Z,100354.81
2018-12-11T02:06:34.590Z,100359.38
2018-12-11T02:09:05.951Z,100363.83
2018-12-11T02:11:36.933Z,100371.20
2018-12-11T02:14:06.289Z,100378.75
2018-12-11T02:16:35.485Z,100376.09
2018-12-11T02:19:05.535Z,100383.31
2018-12-11T02:21:34.923Z,100385.64
2018-12-11T02:24:04.124Z,100395.72
2018-12-11T02:26:33.318Z,100398.31
2018-12-11T02:29:02.705Z,100398.84
2018-12-11T02:31:31.793Z,100413.92
2018-12-11T02:34:01.193Z,100416.50
2018-12-11T02:36:30.556Z,100406.94
2018-12-11T02:38:59.657Z,100418.75
2018-12-11T02:41:28.656Z,100432.76
2018-12-11T02:43:58.159Z,100434.34
2018-12-11T02:46:27.379Z,100427.71
2018-12-11T02:48:56.393Z,100437.26
2018-12-11T02:51:26.298Z,100439.45
2018-12-11T02:53:55.485Z,100439.98
2018-12-11T02:56:24.723Z,100439.58
2018-12-11T02:58:54.101Z,100442.18
2018-12-11T03:01:23.313Z,100446.70
2018-12-11T03:03:52.401Z,100446.20
2018-12-11T03:06:22.453Z,100453.89
2018-12-11T03:08:51.562Z,100456.31
2018-12-11T03:11:20.597Z,100451.24
2018-12-11T03:13:50.073Z,100468.63
2018-12-11T03:16:19.190Z,100476.84
2018-12-11T03:18:48.286Z,100478.77
2018-12-11T03:21:17.812Z,100487.00
2018-12-11T03:23:46.833Z,100489.19
2018-12-11T03:26:15.874Z,100489.19
2018-12-11T03:28:45.320Z,100508.30
2018-12-11T03:31:14.870Z,100505.74
2018-12-11T03:33:45.013Z,100509.45
2018-12-11T03:36:14.102Z,100485.47
2018-12-11T03:38:43.170Z,100519.14
2018-12-11T03:41:12.197Z,100521.60
2018-12-11T03:43:41.282Z,100521.40
2018-12-11T03:46:10.465Z,100541.77
2018-12-11T03:48:39.765Z,100534.73
2018-12-11T03:51:08.874Z,100538.19
2018-12-11T03:53:38.058Z,100546.22
2018-12-11T03:56:07.489Z,100547.21
2018-12-11T03:58:36.565Z,100553.58
2018-12-11T04:01:05.591Z,100564.20
2018-12-11T04:03:34.993Z,100563.22
2018-12-11T04:06:04.433Z,100569.20
2018-12-11T04:08:33.468Z,100586.42
2018-12-11T04:11:02.967Z,100579.08
2018-12-11T04:13:32.273Z,100589.80
2018-12-11T04:16:01.358Z,100585.97
2018-12-11T04:18:30.785Z,100588.42
2018-12-11T04:20:59.865Z,100586.44
2018-12-11T04:23:29.473Z,100587.56
2018-12-11T04:25:58.893Z,100596.86
2018-12-11T04:28:28.416Z,100603.50
2018-12-11T04:30:57.474Z,100609.87
2018-12-11T04:33:27.016Z,100609.47
2018-12-11T04:35:56.209Z,100610.31
2018-12-11T04:38:25.509Z,100619.03
2018-12-11T04:40:54.885Z,100621.88
2018-12-11T04:43:23.978Z,100626.73
2018-12-11T04:45:53.069Z,100631.30
2018-12-11T04:48:22.476Z,100642.40
2018-12-11T04:50:51.574Z,100645.05
2018-12-11T04:53:20.666Z,100645.90
2018-12-11T04:55:50.074Z,100654.52
2018-12-11T04:58:19.264Z,100654.34
2018-12-11T05:00:48.338Z,100660.23
2018-12-11T05:03:18.904Z,100665.89
2018-12-11T05:05:47.921Z,100660.56
2018-12-11T05:08:17.226Z,100674.89
2018-12-11T05:10:46.589Z,100680.66
2018-12-11T05:13:15.673Z,100688.44
2018-12-11T05:15:44.803Z,100692.14
2018-12-11T05:18:14.191Z,100694.80
2018-12-11T05:20:43.245Z,100689.77
2018-12-11T05:23:12.441Z,100697.83
2018-12-11T05:25:41.977Z,100702.08
2018-12-11T05:28:11.082Z,100713.89
2018-12-11T05:30:40.141Z,100712.23
2018-12-11T05:33:09.399Z,100717.09
2018-12-11T05:35:38.561Z,100724.13
2018-12-11T05:38:07.565Z,100731.80
2018-12-11T05:40:39.640Z,100729.91
2018-12-11T05:43:09.021Z,100740.92
2018-12-11T05:45:38.200Z,100739.48
2018-12-11T05:48:07.437Z,100739.19
2018-12-11T05:50:36.535Z,100740.98
2018-12-11T05:53:05.613Z,100744.73
2018-12-11T05:55:35.465Z,100748.36
2018-12-11T05:58:04.479Z,100755.69
2018-12-11T06:00:33.485Z,100753.78
2018-12-11T06:03:03.015Z,100755.71
2018-12-11T06:08:42.229Z,100759.61
2018-12-11T06:11:11.360Z,100761.53
2018-12-11T06:13:41.004Z,100764.65
2018-12-11T06:16:11.237Z,100774.39
2018-12-11T06:18:40.270Z,100777.34
2018-12-11T06:21:09.537Z,100782.75
2018-12-11T06:23:38.641Z,100787.60
2018-12-11T06:26:07.686Z,100789.04
2018-12-11T06:28:36.879Z,100797.03
2018-12-11T06:31:05.946Z,100797.50
2018-12-11T06:33:34.986Z,100795.30
2018-12-11T06:36:04.392Z,100805.92
2018-12-11T06:38:33.618Z,100802.69
2018-12-11T06:41:04.268Z,100810.02
2018-12-11T06:43:33.648Z,100813.42
2018-12-11T06:46:03.608Z,100828.12
2018-12-11T06:48:33.337Z,100835.45
2018-12-11T06:51:02.424Z,100830.84
2018-12-11T06:53:31.574Z,100848.31
2018-12-11T06:56:01.822Z,100850.74
2018-12-11T06:58:31.975Z,100856.86
2018-12-11T07:01:01.044Z,100867.69
2018-12-11T07:03:32.518Z,100865.66
2018-12-11T07:06:01.985Z,100873.91
2018-12-11T07:08:31.331Z,100871.72
2018-12-11T07:11:00.520Z,100874.45
2018-12-11T07:13:29.741Z,100873.59
2018-12-11T07:15:58.787Z,100875.44
2018-12-11T07:18:27.908Z,100868.56
2018-12-11T07:20:57.061Z,100884.27
2018-12-11T07:23:26.173Z,100893.61
2018-12-11T07:25:55.233Z,100898.45
2018-12-11T07:28:24.372Z,100897.80
2018-12-11T07:30:53.469Z,100888.17
2018-12-11T07:33:23.190Z,100901.63
2018-12-11T07:35:52.390Z,100917.84
2018-12-11T07:38:21.598Z,100925.09
2018-12-11T07:40:50.705Z,100930.14
2018-12-11T07:43:19.739Z,100938.94
2018-12-11T07:45:48.989Z,100944.73
2018-12-11T07:48:18.175Z,100940.34
2018-12-11T07:50:47.277Z,100948.06
2018-12-11T07:53:16.966Z,100950.83
2018-12-11T07:55:46.682Z,100962.66
2018-12-11T07:58:15.881Z,100966.13
2018-12-11T08:00:44.965Z,100963.47
2018-12-11T08:03:14.034Z,100975.12
2018-12-11T08:05:43.154Z,100955.59
2018-12-11T08:08:16.516Z,100972.00
2018-12-11T08:10:45.644Z,100987.92
2018-12-11T08:13:14.862Z,100994.16
2018-12-11T08:15:43.912Z,100995.27
2018-12-11T08:18:13.068Z,100997.67
2018-12-11T08:20:42.212Z,101002.77
2018-12-11T08:23:11.651Z,101013.33
2018-12-11T08:25:41.332Z,101020.30
2018-12-11T08:28:11.869Z,101016.91
2018-12-11T08:30:41.596Z,101018.91
2018-12-11T08:33:10.861Z,101029.23
2018-12-11T08:35:40.012Z,101031.78
2018-12-11T08:38:09.084Z,101037.39
2018-12-11T08:40:38.138Z,101041.02
2018-12-11T08:43:07.316Z,101042.55
2018-12-11T08:45:36.463Z,101040.91
2018-12-11T08:48:06.143Z,101048.77
2018-12-11T08:50:35.299Z,101055.41
2018-12-11T08:53:04.393Z,101046.22
2018-12-11T08:55:33.528Z,101056.63
2018-12-11T08:58:02.960Z,101055.44
2018-12-11T09:00:33.265Z,101058.31
2018-12-11T09:03:02.299Z,101067.95
2018-12-11T09:05:31.794Z,101073.78
2018-12-11T09:08:01.407Z,101086.50
2018-12-11T09:10:31.103Z,101084.71
2018-12-11T09:13:00.177Z,101098.29
2018-12-11T09:15:29.228Z,101089.10
2018-12-11T09:17:58.558Z,101102.07
2018-12-11T09:20:27.892Z,101102.48
2018-12-11T09:22:57.087Z,101111.00
2018-12-11T09:25:26.514Z,101109.27
2018-12-11T09:27:56.722Z,101118.00
2018-12-11T09:30:26.211Z,101117.59
2018-12-11T09:32:56.245Z,101123.48
2018-12-11T09:35:25.330Z,101133.92
2018-12-11T09:37:54.433Z,101135.20
2018-12-11T09:40:24.593Z,101136.98
2018-12-11T09:42:53.976Z,101146.94
2018-12-11T09:45:23.349Z,101151.89
2018-12-11T09:47:52.376Z,101155.67
2018-12-11T09:50:21.878Z,101156.59
2018-12-11T09:52:51.324Z,101158.63
2018-12-11T09:55:20.366Z,101169.97
2018-12-11T09:57:49.402Z,101174.61
2018-12-11T10:00:19.214Z,101176.71
2018-12-11T10:02:50.233Z,101181.66
2018-12-11T10:05:19.610Z,101186.31
2018-12-11T10:07:48.716Z,101185.09
2018-12-11T10:10:17.873Z,101190.19
2018-12-11T10:12:47.078Z,101195.03
2018-12-11T10:15:16.289Z,101196.16
2018-12-11T10:17:45.374Z,101196.00
2018-12-11T10:20:15.812Z,101204.94
2018-12-11T10:22:44.999Z,101201.88
2018-12-11T10:25:14.090Z,101206.98
2018-12-11T10:27:43.506Z,101214.54
2018-12-11T10:30:12.758Z,101219.39
2018-12-11T10:32:44.597Z,101212.09
2018-12-11T10:35:14.085Z,101229.25
2018-12-11T10:37:43.537Z,101230.98
2018-12-11T10:40:12.714Z,101237.88
2018-12-11T10:42:41.783Z,101237.02
2018-12-11T10:45:11.714Z,101238.73
2018-12-11T10:47:41.357Z,101239.09
2018-12-11T10:50:11.502Z,101244.20
2018-12-11T10:52:40.603Z,101245.31
2018-12-11T10:55:09.903Z,101244.45
2018-12-11T10:57:40.031Z,101246.24
2018-12-11T11:00:13.725Z,101254.28
2018-12-11T11:02:48.168Z,101249.72
2018-12-11T11:05:17.210Z,101262.55
2018-12-11T11:07:46.847Z,101258.20
2018-12-11T11:10:15.889Z,101265.30
2018-12-11T11:12:46.263Z,101265.78
2018-12-11T11:15:16.946Z,101220.66
2018-12-11T11:17:46.510Z,101275.54
2018-12-11T11:20:15.715Z,101283.03
2018-12-11T11:22:45.264Z,101292.64
2018-12-11T11:25:15.058Z,101299.69
2018-12-11T11:27:45.327Z,101302.25
2018-12-11T11:30:14.648Z,101308.48
2018-12-11T11:32:44.376Z,101301.13
2018-12-11T11:35:16.527Z,101312.26
2018-12-11T11:37:46.943Z,101280.22
2018-12-11T11:40:16.833Z,101316.77
2018-12-11T11:42:46.177Z,101323.00
2018-12-11T11:45:15.373Z,101326.42
2018-12-11T11:47:44.511Z,101341.04
2018-12-11T11:50:16.066Z,101343.84
2018-12-11T11:52:45.197Z,101347.33
2018-12-11T11:55:14.638Z,101346.14
2018-12-11T11:57:44.016Z,101358.97
2018-12-11T12:00:15.247Z,101362.72
2018-12-11T12:02:45.262Z,101368.27
2018-12-11T12:05:14.476Z,101367.93
2018-12-11T12:07:43.541Z,101368.08
2018-12-11T12:10:14.619Z,101383.25
2018-12-11T12:12:43.647Z,101390.33
2018-12-11T12:15:12.858Z,101395.95
2018-12-11T12:17:42.294Z,101395.88
2018-12-11T12:20:11.609Z,101414.86
2018-12-11T12:22:43.799Z,101405.45
2018-12-11T12:25:13.902Z,101414.09
2018-12-11T12:27:43.390Z,101420.17
2018-12-11T12:30:13.960Z,101426.91
2018-12-11T12:32:43.142Z,101423.75
2018-12-11T12:35:14.059Z,101420.94
2018-12-11T12:37:43.982Z,101434.33
2018-12-11T12:40:13.239Z,101434.55
2018-12-11T12:42:43.339Z,101434.50
2018-12-11T12:45:12.474Z,101437.09
2018-12-11T12:47:42.071Z,101438.91
2018-12-11T12:50:12.600Z,101443.41
2018-12-11T12:52:42.266Z,101441.58
2018-12-11T12:55:12.560Z,101448.31
2018-12-11T12:57:42.416Z,101457.30
2018-12-11T13:00:13.674Z,101460.87
2018-12-11T13:02:42.894Z,101459.54
2018-12-11T13:05:13.232Z,101463.84
2018-12-11T13:07:42.279Z,101470.31
2018-12-11T13:10:11.458Z,101470.58
2018-12-11T13:12:41.017Z,101475.03
2018-12-11T13:15:10.174Z,101483.65
2018-12-11T13:17:39.297Z,101491.84
2018-12-11T13:20:08.825Z,101495.66
2018-12-11T13:22:37.818Z,101494.92
2018-12-11T13:25:07.234Z,101508.89
2018-12-11T13:27:36.277Z,101501.73
2018-12-11T13:30:06.225Z,101500.31
2018-12-11T13:32:35.371Z,101508.06
2018-12-11T13:35:04.849Z,101513.34
2018-12-11T13:37:34.023Z,101510.63
2018-12-11T13:40:03.190Z,101516.95
2018-12-11T13:42:32.435Z,101524.97
2018-12-11T13:45:01.610Z,101531.33
2018-12-11T13:47:30.664Z,101523.91
2018-12-11T13:50:00.227Z,101534.13
2018-12-11T13:52:29.335Z,101532.80
2018-12-11T13:54:58.503Z,101537.02
2018-12-11T13:57:27.622Z,101537.88
2018-12-11T13:59:56.689Z,101544.61
2018-12-11T14:02:25.728Z,101543.83
2018-12-11T14:04:55.301Z,101551.53
2018-12-11T14:07:24.382Z,101555.66
2018-12-11T14:09:53.581Z,101553.04
2018-12-11T14:12:23.229Z,101555.30
2018-12-11T14:14:52.905Z,101558.68
2018-12-11T14:17:22.001Z,101556.98
2018-12-11T14:19:57.136Z,101559.77
2018-12-11T14:22:26.338Z,101566.03
2018-12-11T14:24:55.426Z,101568.41
2018-12-11T14:27:24.989Z,101577.58
2018-12-11T14:29:54.872Z,101585.05
2018-12-11T14:32:24.063Z,101586.63
2018-12-11T14:34:54.313Z,101588.19
2018-12-11T14:37:23.589Z,101592.78
2018-12-11T14:39:54.084Z,101597.64
2018-12-11T14:42:23.259Z,101602.87
2018-12-11T14:44:52.380Z,101614.02
2018-12-11T14:47:21.490Z,101608.71
2018-12-11T14:49:51.383Z,101610.19
2018-12-11T14:52:22.444Z,101622.33
2018-12-11T14:54:51.538Z,101621.30
2018-12-11T14:57:20.890Z,101625.52
2018-12-11T14:59:49.969Z,101632.38
2018-12-11T15:02:19.181Z,101644.36
2018-12-11T15:04:49.144Z,101641.81
2018-12-11T15:07:18.373Z,101647.17
2018-12-11T15:09:51.564Z,101650.66
2018-12-11T15:12:20.831Z,101651.56
2018-12-11T15:14:50.352Z,101666.77
2018-12-11T15:17:19.921Z,101671.06
2018-12-11T15:19:49.351Z,101673.11
2018-12-11T15:22:19.690Z,101682.29
2018-12-11T15:24:48.758Z,101682.44
2018-12-11T15:27:18.172Z,101677.63
2018-12-11T15:29:47.625Z,101685.97
2018-12-11T15:32:16.931Z,101682.78
2018-12-11T15:34:47.139Z,101689.91
2018-12-11T15:37:16.296Z,101698.14
2018-12-11T15:39:45.400Z,101695.67
2018-12-11T15:42:14.724Z,101700.05
2018-12-11T15:44:43.897Z,101704.06
2018-12-11T15:47:12.944Z,101704.52
2018-12-11T15:49:42.111Z,101711.19
2018-12-11T15:52:11.514Z,101710.59
2018-12-11T15:54:40.774Z,101709.26
2018-12-11T15:57:10.010Z,101712.71
2018-12-11T15:59:39.166Z,101717.79
2018-12-11T16:02:08.386Z,101717.57
2018-12-11T16:04:37.687Z,101713.52
2018-12-11T16:07:07.485Z,101726.86
2018-12-11T16:09:36.647Z,101723.03
2018-12-11T16:12:06.926Z,101724.95
2018-12-11T16:14:36.474Z,101730.41
2018-12-11T16:17:06.037Z,101722.55
2018-12-11T16:19:35.134Z,101741.06
2018-12-11T16:22:04.258Z,101730.12
2018-12-11T16:24:33.332Z,101736.83
2018-12-11T16:27:03.689Z,101738.25
2018-12-11T16:29:33.174Z,101728.94
2018-12-11T16:32:02.404Z,101737.86
2018-12-11T16:34:31.479Z,101741.26
2018-12-11T16:37:00.528Z,101739.83
2018-12-11T16:39:29.685Z,101741.09
2018-12-11T16:41:58.973Z,101742.06
2018-12-11T16:44:28.091Z,101751.97
2018-12-11T16:46:57.143Z,101754.27
2018-12-11T16:49:26.531Z,101752.42
2018-12-11T16:51:55.800Z,101762.71
2018-12-11T16:54:24.904Z,101749.80
2018-12-11T16:56:55.493Z,101758.67
2018-12-11T16:59:25.835Z,101761.55
2018-12-11T17:01:56.795Z,101764.62
2018-12-11T17:04:26.014Z,101768.23
2018-12-11T17:06:55.107Z,101772.03
2018-12-11T17:09:24.156Z,101778.72
2018-12-11T17:11:53.926Z,101780.05
2018-12-11T17:14:22.982Z,101787.59
2018-12-11T17:16:52.035Z,101778.66
2018-12-11T17:19:21.747Z,101789.75
2018-12-11T17:21:50.773Z,101787.88
2018-12-11T17:24:20.491Z,101800.36
2018-12-11T17:26:49.546Z,101798.20
2018-12-11T17:29:24.159Z,101796.72
2018-12-11T17:31:50.190Z,101800.63
2018-12-11T17:34:19.219Z,101805.36
2018-12-11T17:36:48.429Z,101806.69
2018-12-11T17:39:17.477Z,101805.45
2018-12-11T17:41:46.691Z,101806.69
2018-12-11T17:44:15.906Z,101819.83
2018-12-11T17:46:45.735Z,101824.91
2018-12-11T17:49:15.154Z,101831.50
2018-12-11T17:51:44.299Z,101850.86
2018-12-11T17:54:13.809Z,101848.59
2018-12-11T17:56:43.190Z,101840.19
2018-12-11T17:59:12.650Z,101844.16
2018-12-11T18:01:42.765Z,101841.60
2018-12-11T18:04:13.204Z,101851.73
2018-12-11T18:06:42.231Z,101855.41
2018-12-11T18:09:11.369Z,101863.94
2018-12-11T18:11:40.591Z,101863.13
2018-12-11T18:14:10.080Z,101870.75
2018-12-11T18:16:39.423Z,101869.25
2018-12-11T18:19:08.694Z,101866.71
2018-12-11T18:21:38.023Z,101876.50
2018-12-11T18:24:07.278Z,101872.13
2018-12-11T18:26:36.622Z,101874.34
2018-12-11T18:29:05.976Z,101873.48
2018-12-11T18:31:36.998Z,101882.29
2018-12-11T18:34:10.922Z,101885.00
2018-12-11T18:36:37.783Z,101885.00
2018-12-11T18:39:09.146Z,101883.19
2018-12-11T18:41:41.662Z,101893.80
2018-12-11T18:44:11.946Z,101894.25
2018-12-11T18:46:42.241Z,101900.02
2018-12-11T18:49:11.423Z,101901.34
2018-12-11T18:51:41.414Z,101899.53
2018-12-11T18:54:10.666Z,101907.52
2018-12-11T18:56:39.869Z,101910.70
2018-12-11T18:59:08.979Z,101916.41
2018-12-11T19:01:38.917Z,101923.86
2018-12-11T19:04:08.591Z,101926.48
2018-12-11T19:06:38.563Z,101921.66
2018-12-11T19:09:08.266Z,101922.08
2018-12-11T19:11:39.472Z,101927.67
2018-12-11T19:14:09.079Z,101922.30
2018-12-11T19:16:38.259Z,101930.83
2018-12-11T19:19:07.638Z,101927.58
2018-12-11T19:21:37.331Z,101931.98
2018-12-11T19:24:10.608Z,101938.62
2018-12-11T19:26:40.814Z,101940.68
2018-12-11T19:29:10.114Z,101944.66
2018-12-11T19:31:43.154Z,101946.39
2018-12-11T19:34:14.269Z,101944.21
2018-12-11T19:36:43.875Z,101949.23
2018-12-11T19:39:15.177Z,101949.55
2018-12-11T19:41:45.602Z,101951.27
2018-12-11T19:44:16.506Z,101951.27
2018-12-11T19:46:45.733Z,101953.39
2018-12-11T19:49:14.801Z,101958.97
2018-12-11T19:51:43.881Z,101954.55
2018-12-11T19:54:13.108Z,101961.66
2018-12-11T19:56:42.186Z,101957.37
2018-12-11T19:59:11.981Z,101967.19
2018-12-11T20:01:41.157Z,101972.58
2018-12-11T20:04:10.702Z,101971.59
2018-12-11T20:06:40.209Z,101968.46
2018-12-11T20:09:09.435Z,101974.28
2018-12-11T20:11:39.620Z,101971.73
2018-12-11T20:14:09.256Z,101976.61
2018-12-11T20:16:38.321Z,101972.63
2018-12-11T20:19:07.553Z,101978.05
2018-12-11T20:21:37.039Z,101981.17
2018-12-11T20:24:07.587Z,101976.72
2018-12-11T20:26:39.452Z,101985.18
2018-12-11T20:29:08.397Z,101987.86
2018-12-11T20:31:37.517Z,101992.23
2018-12-11T20:34:06.801Z,101993.64
2018-12-11T20:36:36.239Z,102001.20
2018-12-11T20:39:07.211Z,102001.45
2018-12-11T20:41:37.350Z,102005.34
2018-12-11T20:44:06.574Z,102009.25
2018-12-11T20:46:35.670Z,102007.00
2018-12-11T20:49:04.910Z,102008.81
2018-12-11T20:51:34.411Z,102010.20
2018-12-11T20:54:03.464Z,102023.41
2018-12-11T20:56:32.784Z,102017.69
2018-12-11T20:59:01.841Z,102022.06
2018-12-11T21:01:30.897Z,102032.67
2018-12-11T21:04:00.257Z,102019.44
2018-12-11T21:06:29.675Z,102032.25
2018-12-11T21:08:58.839Z,102034.03
2018-12-11T21:11:27.975Z,102039.36
2018-12-11T21:13:57.173Z,102038.44
2018-12-11T21:16:26.333Z,102043.77
2018-12-11T21:18:56.311Z,102047.70
2018-12-11T21:21:25.826Z,102053.83
2018-12-11T21:23:55.252Z,102051.17
2018-12-11T21:26:24.391Z,102041.44
2018-12-11T21:28:54.495Z,102048.88
2018-12-11T21:31:24.882Z,102052.00
2018-12-11T21:33:55.521Z,102057.36
2018-12-11T21:36:26.021Z,102064.84
2018-12-11T21:38:55.128Z,102056.38
2018-12-11T21:41:24.762Z,102056.03
2018-12-11T21:43:54.513Z,102059.06
2018-12-11T21:46:23.643Z,102063.17
2018-12-11T21:48:52.858Z,102061.77
2018-12-11T21:51:22.189Z,102076.28
2018-12-11T21:53:51.256Z,102071.35
2018-12-11T21:56:20.425Z,102082.45
2018-12-11T21:58:51.293Z,102075.70
2018-12-11T22:01:20.367Z,102073.10
2018-12-11T22:03:49.416Z,102077.86
2018-12-11T22:06:18.682Z,102082.61
2018-12-11T22:08:47.777Z,102086.52
2018-12-11T22:11:17.407Z,102083.70
2018-12-11T22:13:46.468Z,102089.59
2018-12-11T22:16:16.698Z,102094.85
2018-12-11T22:18:45.795Z,102088.59
2018-12-11T22:21:14.858Z,102093.84
2018-12-11T22:23:43.984Z,102095.76
2018-12-11T22:26:13.798Z,102096.60
2018-12-11T22:28:43.230Z,102096.58
2018-12-11T22:31:15.551Z,102104.01
2018-12-11T22:33:44.590Z,102111.23
2018-12-11T22:36:13.937Z,102109.45
2018-12-11T22:38:43.196Z,102113.59
2018-12-11T22:41:13.438Z,102114.06
2018-12-11T22:43:42.513Z,102113.22
2018-12-11T22:46:11.627Z,102110.23
2018-12-11T22:48:41.469Z,102115.52
2018-12-11T22:51:10.637Z,102116.25
2018-12-11T22:53:45.351Z,102114.31
2018-12-11T22:56:14.457Z,102116.59
2018-12-11T22:58:43.494Z,102124.03
2018-12-11T23:01:12.586Z,102121.86
2018-12-11T23:03:41.646Z,102124.18
2018-12-11T23:06:10.908Z,102122.85
2018-12-11T23:08:40.265Z,102129.91
2018-12-11T23:11:09.398Z,102131.66
2018-12-11T23:13:38.424Z,102145.84
2018-12-11T23:16:07.909Z,102149.25
2018-12-11T23:18:36.940Z,102143.39
2018-12-11T23:21:06.077Z,102150.91
2018-12-11T23:23:35.178Z,102154.08
2018-12-11T23:26:04.272Z,102155.19
2018-12-11T23:28:33.357Z,102157.54
2018-12-11T23:31:02.771Z,102157.44
2018-12-11T23:33:31.371Z,102161.87
2018-12-11T23:36:00.411Z,102160.57
2018-12-11T23:38:29.810Z,102162.90
2018-12-11T23:40:58.835Z,102172.56
2018-12-11T23:43:28.021Z,102176.63
2018-12-11T23:45:57.559Z,102179.66
2018-12-11T23:48:26.726Z,102176.52
2018-12-11T23:50:55.866Z,102191.91
2018-12-11T23:53:25.033Z,102177.33
2018-12-11T23:55:54.178Z,102184.80
2018-12-11T23:58:23.775Z,102191.95
